Time;durP1;ratioP1;P1;durP2;ratioP2;P2;SDS_P1;SDS_P2;PMS_P1;PMS_P2;Temp;Humidity;BMP_temperature;BMP_pressure;BME280_temperature;BME280_humidity;BME280_pressure;Samples;Min_cycle;Max_cycle;Signal;HPM_P1;HPM_P2
2021/09/29 00:01:02;;;;;;;6.55;3.10;;;;;;;;;;4994836;28;20398;-77
2021/09/29 00:03:28;;;;;;;5.97;3.10;;;;;;;;;;4995978;28;20089;-77
2021/09/29 00:05:54;;;;;;;7.40;3.30;;;;;;;;;;4978159;28;20038;-77
2021/09/29 00:08:20;;;;;;;6.45;2.97;;;;;;;;;;4995537;28;20470;-77
2021/09/29 00:10:46;;;;;;;6.60;3.35;;;;;;;;;;4995004;28;20034;-77
2021/09/29 00:13:12;;;;;;;5.90;3.00;;;;;;;;;;4991944;28;20395;-77
2021/09/29 00:15:38;;;;;;;5.28;3.15;;;;;;;;;;4994234;28;20102;-76
2021/09/29 00:18:04;;;;;;;4.55;2.88;;;;;;;;;;4995986;28;20046;-76
2021/09/29 00:20:30;;;;;;;5.38;3.40;;;;;;;;;;4994414;28;20043;-77
2021/09/29 00:22:56;;;;;;;4.88;3.05;;;;;;;;;;4994676;28;20479;-77
2021/09/29 00:25:22;;;;;;;4.63;2.97;;;;;;;;;;4992569;28;20041;-77
2021/09/29 00:27:48;;;;;;;4.57;3.22;;;;;;;;;;4992821;28;20030;-77
2021/09/29 00:30:15;;;;;;;8.18;3.10;;;;;;;;;;4993663;28;20109;-77
2021/09/29 00:32:42;;;;;;;6.13;2.60;;;;;;;;;;4994032;28;20030;-77
2021/09/29 00:35:09;;;;;;;5.15;3.13;;;;;;;;;;4994564;28;20030;-76
2021/09/29 00:37:36;;;;;;;5.13;3.38;;;;;;;;;;5003949;28;20050;-77
2021/09/29 00:40:02;;;;;;;10.52;3.40;;;;;;;;;;5005788;28;20026;-77
2021/09/29 00:42:28;;;;;;;7.60;3.80;;;;;;;;;;5011917;28;20408;-76
2021/09/29 00:44:54;;;;;;;9.27;3.30;;;;;;;;;;4995009;28;20113;-77
2021/09/29 00:47:20;;;;;;;5.10;3.25;;;;;;;;;;4994361;28;20062;-77
2021/09/29 00:49:46;;;;;;;6.20;3.55;;;;;;;;;;4992715;28;20422;-77
2021/09/29 00:52:13;;;;;;;6.78;3.30;;;;;;;;;;4993780;28;20417;-77
2021/09/29 00:54:39;;;;;;;4.90;3.35;;;;;;;;;;4992913;28;20026;-77
2021/09/29 00:57:05;;;;;;;8.85;3.80;;;;;;;;;;4993406;28;20026;-77
2021/09/29 00:59:31;;;;;;;6.55;4.07;;;;;;;;;;4993237;28;20074;-77
2021/09/29 01:01:57;;;;;;;5.22;3.70;;;;;;;;;;4992441;28;20557;-77
2021/09/29 01:04:25;;;;;;;6.25;4.00;;;;;;;;;;4993536;28;20399;-77
2021/09/29 01:06:51;;;;;;;9.13;4.72;;;;;;;;;;4993432;28;20020;-77
2021/09/29 01:09:21;;;;;;;6.20;4.93;;;;;;;;;;4992750;28;20026;-77
2021/09/29 01:11:51;;;;;;;9.77;4.28;;;;;;;;;;4993323;28;20018;-77
2021/09/29 01:14:19;;;;;;;6.20;4.28;;;;;;;;;;4993021;28;20026;-77
2021/09/29 01:16:47;;;;;;;6.53;4.03;;;;;;;;;;4993248;28;20034;-77
2021/09/29 01:19:32;;;;;;;5.30;3.85;;;;;;;;;;4992706;28;20118;-77
2021/09/29 01:22:03;;;;;;;6.05;4.22;;;;;;;;;;4993286;28;20052;-77
2021/09/29 01:24:36;;;;;;;7.30;4.22;;;;;;;;;;4993000;28;20023;-77
2021/09/29 01:27:02;;;;;;;5.07;4.18;;;;;;;;;;4992944;28;20081;-77
2021/09/29 01:29:28;;;;;;;7.50;4.05;;;;;;;;;;4992406;28;20027;-77
2021/09/29 01:31:54;;;;;;;9.45;4.38;;;;;;;;;;4992767;28;20027;-77
2021/09/29 01:34:20;;;;;;;8.20;4.43;;;;;;;;;;4985740;28;20035;-77
2021/09/29 01:36:47;;;;;;;6.15;4.10;;;;;;;;;;4992946;28;20027;-77
2021/09/29 01:39:16;;;;;;;9.73;5.05;;;;;;;;;;4992306;28;20066;-77
2021/09/29 01:41:42;;;;;;;9.60;4.65;;;;;;;;;;5008415;28;20121;-77
2021/09/29 01:44:08;;;;;;;6.40;4.50;;;;;;;;;;5005421;28;20494;-77
2021/09/29 01:46:34;;;;;;;7.55;4.78;;;;;;;;;;4992581;28;20114;-77
2021/09/29 01:49:06;;;;;;;9.13;5.20;;;;;;;;;;4992192;28;20061;-77
2021/09/29 01:51:33;;;;;;;7.63;5.03;;;;;;;;;;4991777;28;20022;-77
2021/09/29 01:54:01;;;;;;;8.30;5.05;;;;;;;;;;4992921;28;20033;-78
2021/09/29 01:56:27;;;;;;;8.27;4.82;;;;;;;;;;4994714;28;20026;-77
2021/09/29 01:58:53;;;;;;;8.10;5.25;;;;;;;;;;4993701;28;20145;-77
2021/09/29 02:01:19;;;;;;;7.85;4.78;;;;;;;;;;4993973;28;20137;-77
2021/09/29 02:03:46;;;;;;;9.27;5.25;;;;;;;;;;4994356;28;20096;-77
2021/09/29 02:06:12;;;;;;;8.23;4.72;;;;;;;;;;4993686;28;20105;-77
2021/09/29 02:08:39;;;;;;;6.10;4.20;;;;;;;;;;4996163;28;20041;-77
2021/09/29 02:11:05;;;;;;;6.45;4.30;;;;;;;;;;5013766;28;20029;-77
2021/09/29 02:13:31;;;;;;;8.38;4.85;;;;;;;;;;5015849;28;20072;-77
2021/09/29 02:15:57;;;;;;;7.63;4.72;;;;;;;;;;4993810;28;20026;-78
2021/09/29 02:18:23;;;;;;;8.55;4.65;;;;;;;;;;4992352;28;20518;-78
2021/09/29 02:20:52;;;;;;;9.43;4.80;;;;;;;;;;4991787;28;20038;-78
2021/09/29 02:23:18;;;;;;;9.05;4.88;;;;;;;;;;4992350;28;20034;-78
2021/09/29 02:25:44;;;;;;;7.80;4.78;;;;;;;;;;4991936;28;20035;-78
2021/09/29 02:28:10;;;;;;;7.30;4.97;;;;;;;;;;4992096;28;20042;-78
2021/09/29 02:30:36;;;;;;;9.07;4.85;;;;;;;;;;4991349;28;20093;-78
2021/09/29 02:33:02;;;;;;;8.55;4.82;;;;;;;;;;4991585;28;20045;-78
2021/09/29 02:35:28;;;;;;;8.77;5.15;;;;;;;;;;4992428;28;20031;-78
2021/09/29 02:37:54;;;;;;;6.95;4.95;;;;;;;;;;4992309;28;20043;-78
2021/09/29 02:40:21;;;;;;;12.60;5.45;;;;;;;;;;4991364;28;20046;-78
2021/09/29 02:42:47;;;;;;;11.88;5.65;;;;;;;;;;4992103;28;20031;-77
2021/09/29 02:45:13;;;;;;;7.43;5.10;;;;;;;;;;4992882;28;20423;-77
2021/09/29 02:47:39;;;;;;;7.57;5.30;;;;;;;;;;4993300;28;20026;-77
2021/09/29 02:50:05;;;;;;;11.30;5.72;;;;;;;;;;4990785;28;20026;-77
2021/09/29 02:52:31;;;;;;;9.25;5.38;;;;;;;;;;4991637;28;20037;-77
2021/09/29 02:54:57;;;;;;;11.55;5.93;;;;;;;;;;4987512;28;20030;-77
2021/09/29 02:57:23;;;;;;;11.30;7.28;;;;;;;;;;4993260;28;20030;-77
2021/09/29 02:59:49;;;;;;;9.85;6.20;;;;;;;;;;4992828;28;20081;-78
2021/09/29 03:02:15;;;;;;;14.45;6.93;;;;;;;;;;4990362;28;20062;-78
2021/09/29 03:04:41;;;;;;;10.77;6.15;;;;;;;;;;4990865;28;20026;-78
2021/09/29 03:07:07;;;;;;;12.95;6.47;;;;;;;;;;4990208;28;20491;-78
2021/09/29 03:09:33;;;;;;;17.42;6.65;;;;;;;;;;4990691;28;20033;-78
2021/09/29 03:11:59;;;;;;;8.20;6.13;;;;;;;;;;4991250;28;20061;-77
2021/09/29 03:14:25;;;;;;;13.18;5.97;;;;;;;;;;4991248;28;20030;-78
2021/09/29 03:16:51;;;;;;;7.65;6.03;;;;;;;;;;4991644;28;20026;-77
2021/09/29 03:19:17;;;;;;;12.77;5.65;;;;;;;;;;4994993;28;20042;-78
2021/09/29 03:21:43;;;;;;;14.15;5.85;;;;;;;;;;4995587;28;20038;-78
2021/09/29 03:24:09;;;;;;;9.68;5.70;;;;;;;;;;4995106;28;20034;-78
2021/09/29 03:26:35;;;;;;;9.48;6.15;;;;;;;;;;4995506;28;20033;-77
2021/09/29 03:29:01;;;;;;;9.88;5.70;;;;;;;;;;4994313;28;20030;-77
2021/09/29 03:31:27;;;;;;;11.82;6.10;;;;;;;;;;4995503;28;20026;-78
2021/09/29 03:33:54;;;;;;;10.13;5.75;;;;;;;;;;4995338;28;20029;-78
2021/09/29 03:36:20;;;;;;;10.60;5.70;;;;;;;;;;4995651;28;20116;-78
2021/09/29 03:38:46;;;;;;;9.40;5.85;;;;;;;;;;4994873;28;20049;-78
2021/09/29 03:41:12;;;;;;;11.02;6.10;;;;;;;;;;5005258;28;20034;-78
2021/09/29 03:43:38;;;;;;;8.00;5.88;;;;;;;;;;5000276;28;20042;-78
2021/09/29 03:46:04;;;;;;;9.07;5.80;;;;;;;;;;4995002;28;20372;-77
2021/09/29 03:48:30;;;;;;;10.10;5.57;;;;;;;;;;4994543;28;20034;-77
2021/09/29 03:50:56;;;;;;;9.95;5.75;;;;;;;;;;4993344;28;20598;-77
2021/09/29 03:53:22;;;;;;;10.88;5.68;;;;;;;;;;4994428;28;20518;-77
2021/09/29 03:55:49;;;;;;;9.27;5.15;;;;;;;;;;4994591;28;20034;-77
2021/09/29 03:58:18;;;;;;;11.20;5.80;;;;;;;;;;4995154;28;20506;-77
2021/09/29 04:00:44;;;;;;;10.80;5.82;;;;;;;;;;4993798;28;20030;-77
2021/09/29 04:03:11;;;;;;;9.38;5.57;;;;;;;;;;4992231;28;20114;-78
2021/09/29 04:05:38;;;;;;;10.07;5.50;;;;;;;;;;4994498;28;20029;-77
2021/09/29 04:08:04;;;;;;;10.40;5.88;;;;;;;;;;4994395;28;20026;-77
2021/09/29 04:10:30;;;;;;;11.13;6.13;;;;;;;;;;4999965;28;20073;-78
2021/09/29 04:12:57;;;;;;;9.65;5.95;;;;;;;;;;5014107;28;20065;-78
2021/09/29 04:15:23;;;;;;;12.38;6.28;;;;;;;;;;4997439;28;20037;-78
2021/09/29 04:17:49;;;;;;;10.85;6.82;;;;;;;;;;4994818;28;20034;-77
2021/09/29 04:20:15;;;;;;;12.48;6.40;;;;;;;;;;4993604;28;20038;-78
2021/09/29 04:22:41;;;;;;;13.02;6.63;;;;;;;;;;4993247;28;20065;-77
2021/09/29 04:25:07;;;;;;;12.23;7.10;;;;;;;;;;4994287;28;20039;-78
2021/09/29 04:27:33;;;;;;;14.18;7.45;;;;;;;;;;4994550;28;20034;-78
2021/09/29 04:29:59;;;;;;;14.52;7.47;;;;;;;;;;4993911;28;20069;-77
2021/09/29 04:32:25;;;;;;;11.50;7.32;;;;;;;;;;4994232;28;20034;-77
2021/09/29 04:34:51;;;;;;;10.63;6.85;;;;;;;;;;4994642;28;20066;-78
2021/09/29 04:37:17;;;;;;;14.02;7.30;;;;;;;;;;4977417;28;20030;-77
2021/09/29 04:39:43;;;;;;;13.57;8.43;;;;;;;;;;4993636;28;20117;-77
2021/09/29 04:42:09;;;;;;;9.55;7.85;;;;;;;;;;4994142;28;20068;-77
2021/09/29 04:44:35;;;;;;;16.63;8.48;;;;;;;;;;4994079;28;20129;-77
2021/09/29 04:47:01;;;;;;;13.27;8.63;;;;;;;;;;4976819;28;20101;-77
2021/09/29 04:49:28;;;;;;;10.90;8.55;;;;;;;;;;4991556;28;20575;-78
2021/09/29 04:51:54;;;;;;;13.60;8.20;;;;;;;;;;4993463;28;20023;-78
2021/09/29 04:54:20;;;;;;;12.27;8.27;;;;;;;;;;4993129;28;20038;-77
2021/09/29 04:56:46;;;;;;;10.82;8.13;;;;;;;;;;4993374;28;20073;-78
2021/09/29 04:59:12;;;;;;;19.20;7.78;;;;;;;;;;4992222;28;20518;-77
2021/09/29 05:01:40;;;;;;;10.93;8.15;;;;;;;;;;4993173;28;20034;-78
2021/09/29 05:04:06;;;;;;;10.95;7.30;;;;;;;;;;4992988;28;20037;-78
2021/09/29 05:06:32;;;;;;;10.65;7.63;;;;;;;;;;4992805;28;20042;-77
2021/09/29 05:08:58;;;;;;;12.77;8.20;;;;;;;;;;4989637;28;20049;-77
2021/09/29 05:11:25;;;;;;;11.68;7.15;;;;;;;;;;4994562;28;20023;-78
2021/09/29 05:13:51;;;;;;;11.85;7.32;;;;;;;;;;4993086;28;20023;-80
2021/09/29 05:16:17;;;;;;;13.38;7.13;;;;;;;;;;4993115;28;20023;-77
2021/09/29 05:18:43;;;;;;;11.63;6.18;;;;;;;;;;4992682;28;20049;-77
2021/09/29 05:21:09;;;;;;;10.82;6.70;;;;;;;;;;4986810;28;20035;-77
2021/09/29 05:23:35;;;;;;;12.57;6.90;;;;;;;;;;4988336;28;20029;-78
2021/09/29 05:26:01;;;;;;;11.63;7.47;;;;;;;;;;4990633;28;20113;-78
2021/09/29 05:28:32;;;;;;;12.27;6.45;;;;;;;;;;4998896;28;20057;-78
2021/09/29 05:30:58;;;;;;;12.43;6.97;;;;;;;;;;4994104;28;20030;-78
2021/09/29 05:33:25;;;;;;;14.70;6.30;;;;;;;;;;4989651;28;20018;-77
2021/09/29 05:35:51;;;;;;;13.50;7.25;;;;;;;;;;4988658;28;20042;-76
2021/09/29 05:38:17;;;;;;;9.15;6.25;;;;;;;;;;4987079;28;20494;-78
2021/09/29 05:40:43;;;;;;;12.65;7.38;;;;;;;;;;4988245;28;20031;-78
2021/09/29 05:43:09;;;;;;;11.15;6.10;;;;;;;;;;4981982;28;20092;-78
2021/09/29 05:45:35;;;;;;;11.52;6.47;;;;;;;;;;4988197;28;20042;-77
2021/09/29 05:48:01;;;;;;;11.82;7.32;;;;;;;;;;4988832;28;20049;-77
2021/09/29 05:50:27;;;;;;;8.88;6.32;;;;;;;;;;4987139;28;20026;-77
2021/09/29 05:52:53;;;;;;;8.15;6.50;;;;;;;;;;4988738;28;20494;-77
2021/09/29 05:55:19;;;;;;;8.60;6.40;;;;;;;;;;5000723;28;20531;-77
2021/09/29 05:57:45;;;;;;;8.70;6.88;;;;;;;;;;5008771;28;20038;-77
2021/09/29 06:00:12;;;;;;;10.27;6.95;;;;;;;;;;4988459;28;20080;-78
2021/09/29 06:02:38;;;;;;;10.30;6.97;;;;;;;;;;4990540;28;20034;-79
2021/09/29 06:05:05;;;;;;;14.50;7.75;;;;;;;;;;4980323;28;20043;-78
2021/09/29 06:07:31;;;;;;;11.35;7.10;;;;;;;;;;4975325;28;20027;-78
2021/09/29 06:09:57;;;;;;;10.13;6.15;;;;;;;;;;4991550;28;20153;-78
2021/09/29 06:12:23;;;;;;;7.43;5.55;;;;;;;;;;4993750;28;20567;-78
2021/09/29 06:14:50;;;;;;;9.38;6.25;;;;;;;;;;4994061;28;20077;-79
2021/09/29 06:17:24;;;;;;;7.45;5.78;;;;;;;;;;4958622;28;20081;-79
2021/09/29 06:19:54;;;;;;;9.43;5.47;;;;;;;;;;4981889;28;20109;-79
2021/09/29 06:22:21;;;;;;;8.05;4.88;;;;;;;;;;4994197;28;20022;-78
2021/09/29 06:24:48;;;;;;;7.70;4.95;;;;;;;;;;4995805;28;20475;-81
2021/09/29 06:27:14;;;;;;;8.95;5.13;;;;;;;;;;4996956;28;20482;-81
2021/09/29 06:29:40;;;;;;;7.13;4.72;;;;;;;;;;4996178;28;20065;-82
2021/09/29 06:32:06;;;;;;;6.85;4.45;;;;;;;;;;4997309;28;20080;-80
2021/09/29 06:34:32;;;;;;;8.27;4.90;;;;;;;;;;4996745;28;20062;-80
2021/09/29 06:36:59;;;;;;;8.05;4.97;;;;;;;;;;4996081;28;20037;-78
2021/09/29 06:39:25;;;;;;;5.38;4.30;;;;;;;;;;4993200;28;20033;-78
2021/09/29 06:41:51;;;;;;;7.97;4.20;;;;;;;;;;4994446;28;20036;-78
2021/09/29 06:44:17;;;;;;;6.40;3.92;;;;;;;;;;4993166;28;20034;-79
2021/09/29 06:46:43;;;;;;;10.32;4.25;;;;;;;;;;4992949;28;20031;-78
2021/09/29 06:49:09;;;;;;;9.57;4.05;;;;;;;;;;4991685;28;20030;-77
2021/09/29 06:51:35;;;;;;;7.47;4.05;;;;;;;;;;4992340;28;20029;-77
2021/09/29 06:54:01;;;;;;;9.20;4.05;;;;;;;;;;4997193;28;20058;-77
2021/09/29 06:56:27;;;;;;;10.73;4.13;;;;;;;;;;4994813;28;20108;-77
2021/09/29 06:58:53;;;;;;;5.35;3.40;;;;;;;;;;4993437;28;20125;-77
2021/09/29 07:01:20;;;;;;;6.25;3.53;;;;;;;;;;4996116;28;20023;-76
2021/09/29 07:03:46;;;;;;;6.65;3.50;;;;;;;;;;4991263;28;20117;-76
2021/09/29 07:06:12;;;;;;;7.88;3.72;;;;;;;;;;4995965;28;20566;-76
2021/09/29 07:08:38;;;;;;;5.45;4.03;;;;;;;;;;4997286;28;20026;-77
2021/09/29 07:11:05;;;;;;;6.75;3.90;;;;;;;;;;4995637;28;20054;-76
2021/09/29 07:13:31;;;;;;;9.15;3.08;;;;;;;;;;4996682;28;20073;-77
2021/09/29 07:15:57;;;;;;;5.22;3.33;;;;;;;;;;4995265;28;20035;-76
2021/09/29 07:18:32;;;;;;;6.65;3.10;;;;;;;;;;4994576;28;20034;-77
2021/09/29 07:21:01;;;;;;;8.45;3.00;;;;;;;;;;4993725;28;20053;-77
2021/09/29 07:23:27;;;;;;;6.32;2.45;;;;;;;;;;4995845;28;20076;-78
2021/09/29 07:25:53;;;;;;;5.28;2.50;;;;;;;;;;5000865;28;20041;-78
2021/09/29 07:28:19;;;;;;;11.02;3.13;;;;;;;;;;4978461;28;20117;-77
2021/09/29 07:30:46;;;;;;;6.55;2.45;;;;;;;;;;4994215;28;20208;-77
2021/09/29 07:33:13;;;;;;;2.85;1.98;;;;;;;;;;4995765;28;20491;-78
2021/09/29 07:35:41;;;;;;;4.90;2.25;;;;;;;;;;4996586;28;20049;-78
2021/09/29 07:38:07;;;;;;;5.53;1.98;;;;;;;;;;4998105;28;20018;-77
2021/09/29 07:40:33;;;;;;;6.53;1.90;;;;;;;;;;4981480;28;20505;-77
2021/09/29 07:42:59;;;;;;;6.32;1.77;;;;;;;;;;4997193;28;20042;-77
2021/09/29 07:45:25;;;;;;;3.10;1.35;;;;;;;;;;4996683;28;20030;-77
2021/09/29 07:47:52;;;;;;;4.15;1.40;;;;;;;;;;4997047;28;20026;-77
2021/09/29 07:50:19;;;;;;;5.65;1.63;;;;;;;;;;4995560;28;20026;-77
2021/09/29 07:52:45;;;;;;;3.28;1.10;;;;;;;;;;4997252;28;20475;-78
2021/09/29 07:55:12;;;;;;;3.00;0.80;;;;;;;;;;4996057;28;20038;-77
2021/09/29 07:57:38;;;;;;;4.72;1.20;;;;;;;;;;4995264;28;20049;-77
2021/09/29 08:00:05;;;;;;;1.90;1.00;;;;;;;;;;4995269;28;20035;-77
2021/09/29 08:02:31;;;;;;;4.32;0.80;;;;;;;;;;4995245;28;20027;-77
2021/09/29 08:05:01;;;;;;;5.32;1.20;;;;;;;;;;4994724;28;20032;-77
2021/09/29 08:07:27;;;;;;;5.47;1.05;;;;;;;;;;4974676;28;20049;-77
2021/09/29 08:09:53;;;;;;;2.15;0.65;;;;;;;;;;4998675;28;20522;-78
2021/09/29 08:12:19;;;;;;;3.10;0.80;;;;;;;;;;4987798;28;20031;-77
2021/09/29 08:14:45;;;;;;;3.75;1.13;;;;;;;;;;4991007;28;20472;-78
2021/09/29 08:17:11;;;;;;;5.07;0.90;;;;;;;;;;4994615;28;20072;-78
2021/09/29 08:19:37;;;;;;;3.20;1.10;;;;;;;;;;4996637;28;21563;-78
2021/09/29 08:22:04;;;;;;;3.78;0.90;;;;;;;;;;4987351;28;20027;-78
2021/09/29 08:30:13;;;;;;;2.05;0.70;;;;;;;;;;4973015;28;20022;-77
2021/09/29 08:32:58;;;;;;;2.60;0.93;;;;;;;;;;4988368;28;20030;-77
2021/09/29 08:35:29;;;;;;;4.38;0.80;;;;;;;;;;4986869;28;20030;-77
2021/09/29 08:38:27;;;;;;;3.15;0.80;;;;;;;;;;4986405;28;20041;-77
2021/09/29 08:40:50;;;;;;;5.57;0.98;;;;;;;;;;4983002;28;20069;-78
2021/09/29 08:53:45;;;;;;;7.55;0.90;;;;;;;;;;4991311;28;20069;-77
2021/09/29 09:15:55;;;;;;;2.53;0.98;;;;;;;;;;4993102;28;20065;-77
2021/09/29 09:18:21;;;;;;;4.47;1.60;;;;;;;;;;4998265;28;20030;-77
2021/09/29 09:23:41;;;;;;;3.85;0.90;;;;;;;;;;4998395;28;20491;-77
2021/09/29 09:26:23;;;;;;;3.72;0.80;;;;;;;;;;4993336;28;20034;-77
2021/09/29 09:28:49;;;;;;;3.58;0.70;;;;;;;;;;4993025;28;20076;-77
2021/09/29 09:31:20;;;;;;;2.67;0.70;;;;;;;;;;4971153;28;20041;-78
2021/09/29 09:33:51;;;;;;;5.13;1.20;;;;;;;;;;4988769;28;20022;-77
2021/09/29 09:36:32;;;;;;;3.78;1.00;;;;;;;;;;4972510;28;20058;-77
2021/09/29 09:38:59;;;;;;;3.72;0.82;;;;;;;;;;4979075;28;20081;-77
2021/09/29 09:41:25;;;;;;;6.15;1.33;;;;;;;;;;4988777;28;20034;-77
2021/09/29 09:43:53;;;;;;;3.33;0.88;;;;;;;;;;4971293;28;20041;-77
2021/09/29 09:46:21;;;;;;;6.72;0.88;;;;;;;;;;4989509;28;20030;-77
2021/09/29 09:48:57;;;;;;;3.03;0.75;;;;;;;;;;4988567;28;20085;-77
2021/09/29 09:51:23;;;;;;;5.78;1.05;;;;;;;;;;4988754;28;20026;-77
2021/09/29 09:53:57;;;;;;;3.75;0.70;;;;;;;;;;4971659;28;20428;-77
2021/09/29 09:56:25;;;;;;;3.70;0.77;;;;;;;;;;4990474;28;20035;-77
2021/09/29 09:58:54;;;;;;;4.28;0.70;;;;;;;;;;4989313;28;20045;-77
2021/09/29 10:01:21;;;;;;;5.03;0.65;;;;;;;;;;4989627;28;20030;-77
2021/09/29 10:03:47;;;;;;;4.30;0.73;;;;;;;;;;4990872;28;20579;-77
2021/09/29 10:06:14;;;;;;;4.40;0.80;;;;;;;;;;4988494;28;20073;-77
2021/09/29 10:08:44;;;;;;;4.05;0.80;;;;;;;;;;4989362;28;20026;-78
2021/09/29 10:11:18;;;;;;;5.07;0.90;;;;;;;;;;4988373;28;20029;-77
2021/09/29 10:14:09;;;;;;;3.30;0.60;;;;;;;;;;4988905;28;20022;-77
2021/09/29 10:27:36;;;;;;;2.60;0.70;;;;;;;;;;4993189;28;20439;-78
2021/09/29 10:30:13;;;;;;;3.90;0.80;;;;;;;;;;4995682;28;20022;-77
2021/09/29 10:32:45;;;;;;;3.70;0.93;;;;;;;;;;4995414;28;20395;-78
2021/09/29 10:37:57;;;;;;;4.50;0.90;;;;;;;;;;4995416;28;20121;-80
2021/09/29 10:43:06;;;;;;;4.63;0.73;;;;;;;;;;4995090;28;20050;-79
2021/09/29 11:04:51;;;;;;;3.25;0.60;;;;;;;;;;5000504;28;20034;-78
2021/09/29 11:29:50;;;;;;;2.47;0.70;;;;;;;;;;5004218;28;20092;-78
2021/09/29 11:32:19;;;;;;;1.85;0.65;;;;;;;;;;4993813;28;20057;-79
2021/09/29 11:34:45;;;;;;;2.72;0.70;;;;;;;;;;4992671;28;20041;-78
2021/09/29 11:37:27;;;;;;;4.35;0.80;;;;;;;;;;4990745;28;20069;-78
2021/09/29 12:10:29;;;;;;;6.72;1.70;;;;;;;;;;4994283;28;20042;-81
2021/09/29 12:12:56;;;;;;;4.55;1.35;;;;;;;;;;4994315;28;20117;-79
2021/09/29 12:15:23;;;;;;;6.80;1.27;;;;;;;;;;4995130;28;20052;-81
2021/09/29 12:17:52;;;;;;;8.20;1.83;;;;;;;;;;5020162;28;20045;-79
2021/09/29 12:20:27;;;;;;;5.88;1.20;;;;;;;;;;5013804;28;20153;-80
2021/09/29 12:22:56;;;;;;;3.00;0.90;;;;;;;;;;5002308;28;20153;-82
2021/09/29 12:26:44;;;;;;;4.05;1.27;;;;;;;;;;5000643;28;20026;-81
2021/09/29 12:28:54;;;;;;;5.28;1.10;;;;;;;;;;4989378;28;20492;-81
2021/09/29 12:34:29;;;;;;;7.38;1.13;;;;;;;;;;4983351;28;19910;-80
2021/09/29 12:36:56;;;;;;;3.85;1.10;;;;;;;;;;4999713;28;20422;-80
2021/09/29 12:39:25;;;;;;;4.00;1.00;;;;;;;;;;4999496;28;20029;-80
2021/09/29 12:41:52;;;;;;;4.20;0.80;;;;;;;;;;4999248;28;20121;-80
2021/09/29 12:44:19;;;;;;;4.75;1.10;;;;;;;;;;5004249;28;20092;-80
2021/09/29 12:46:50;;;;;;;5.70;1.30;;;;;;;;;;4990052;28;20026;-82
2021/09/29 12:49:20;;;;;;;5.90;1.57;;;;;;;;;;5016896;28;20160;-85
2021/09/29 12:52:33;;;;;;;11.77;1.77;;;;;;;;;;4998214;28;20285;-84
2021/09/29 12:54:33;;;;;;;6.45;1.42;;;;;;;;;;4984675;28;20097;-86
2021/09/29 12:56:59;;;;;;;21.88;2.05;;;;;;;;;;4997578;28;20050;-85
2021/09/29 12:59:25;;;;;;;7.90;1.08;;;;;;;;;;4994900;28;20038;-86
2021/09/29 13:01:51;;;;;;;4.07;0.80;;;;;;;;;;5002308;28;20061;-85
2021/09/29 13:04:19;;;;;;;1.55;0.55;;;;;;;;;;4996016;28;20035;-85
2021/09/29 13:06:45;;;;;;;2.88;0.70;;;;;;;;;;4996200;28;20026;-84
2021/09/29 13:09:11;;;;;;;3.00;0.50;;;;;;;;;;4993672;28;20049;-84
2021/09/29 13:11:37;;;;;;;4.63;0.47;;;;;;;;;;4996135;28;20491;-85
2021/09/29 13:14:03;;;;;;;3.05;0.55;;;;;;;;;;4996088;28;20041;-82
2021/09/29 13:16:29;;;;;;;1.30;0.55;;;;;;;;;;4979293;28;20038;-82
2021/09/29 13:21:56;;;;;;;5.88;0.80;;;;;;;;;;4947095;28;20062;-82
2021/09/29 13:27:31;;;;;;;2.75;0.50;;;;;;;;;;4982946;28;20041;-83
2021/09/29 13:38:09;;;;;;;3.05;0.50;;;13.60;99.90;;;;;;4981273;28;20033;-82
2021/09/29 13:40:35;;;;;;;1.88;0.47;;;14.00;99.90;;;;;;4995015;28;20415;-82
2021/09/29 13:43:01;;;;;;;2.88;0.40;;;13.40;99.90;;;;;;4961797;28;20065;-81
2021/09/29 13:45:27;;;;;;;1.15;0.40;;;13.50;99.90;;;;;;4994865;28;20500;-81
2021/09/29 13:47:53;;;;;;;0.45;0.20;;;13.30;99.90;;;;;;4995407;28;20062;-82
2021/09/29 13:50:20;;;;;;;1.33;0.47;;;13.50;99.90;;;;;;4978306;28;20036;-81
2021/09/29 13:52:46;;;;;;;0.75;0.32;;;13.10;99.90;;;;;;4995918;28;20026;-81
2021/09/29 13:55:16;;;;;;;1.00;0.30;;;13.10;99.90;;;;;;4995929;28;20036;-80
2021/09/29 13:57:47;;;;;;;1.75;0.43;;;13.40;99.90;;;;;;4996020;28;20023;-82
2021/09/29 14:30:09;;;;;;;1.08;0.50;;;15.20;99.90;;;;;;4997483;28;20533;-83
2021/09/29 14:32:48;;;;;;;2.35;0.70;;;13.50;99.90;;;;;;4979571;28;20546;-84
2021/09/29 14:35:14;;;;;;;4.40;0.40;;;14.70;99.90;;;;;;4996898;28;20451;-83
2021/09/29 14:37:40;;;;;;;2.92;0.65;;;14.00;99.90;;;;;;4997265;28;20030;-83
2021/09/29 14:40:06;;;;;;;3.15;0.80;;;14.80;99.90;;;;;;4979281;28;20046;-84
2021/09/29 14:42:32;;;;;;;2.42;0.50;;;;;;;;;;4983247;28;20038;-81
2021/09/29 14:44:58;;;;;;;1.90;0.60;;;;;;;;;;4982015;28;20341;-82
2021/09/29 14:47:24;;;;;;;2.10;0.60;;;14.10;99.90;;;;;;4996550;28;20050;-81
2021/09/29 14:49:49;;;;;;;4.97;0.90;;;16.10;99.90;;;;;;4996202;28;20502;-82
2021/09/29 14:52:15;;;;;;;3.47;0.80;;;14.30;99.90;;;;;;4996602;28;20146;-82
2021/09/29 14:54:41;;;;;;;3.92;0.93;;;14.00;99.90;;;;;;4997559;28;20050;-83
2021/09/29 14:57:10;;;;;;;2.22;0.70;;;13.90;99.90;;;;;;4995975;28;20049;-82
2021/09/29 14:59:45;;;;;;;4.30;0.85;;;14.00;99.90;;;;;;4995519;28;20033;-83
2021/09/29 15:02:14;;;;;;;4.30;0.70;;;14.40;99.90;;;;;;4997084;28;20104;-82
2021/09/29 15:04:40;;;;;;;4.75;0.85;;;14.60;99.90;;;;;;4996891;28;20029;-82
2021/09/29 15:07:05;;;;;;;2.63;1.00;;;14.00;99.90;;;;;;4980262;28;20141;-82
2021/09/29 15:09:31;;;;;;;3.00;1.23;;;13.90;99.90;;;;;;4980622;28;20057;-83
2021/09/29 15:11:57;;;;;;;3.78;1.00;;;14.30;99.90;;;;;;4991163;28;20479;-81
2021/09/29 15:14:43;;;;;;;2.38;1.05;;;;;;;;;;4998219;28;20388;-82
2021/09/29 15:17:14;;;;;;;2.20;0.52;;;;;;;;;;4985134;28;20077;-82
2021/09/29 15:19:49;;;;;;;1.90;0.63;;;14.10;99.90;;;;;;4999490;28;20030;-83
2021/09/29 15:49:11;;;;;;;1.45;0.40;;;;;;;;;;4995493;28;20400;-79
2021/09/29 15:57:26;;;;;;;0.47;0.20;;;;;;;;;;4960433;28;20488;-79
2021/09/29 16:02:41;;;;;;;0.95;0.30;;;;;;;;;;4983973;28;20570;-79
2021/09/29 16:07:51;;;;;;;1.92;0.40;;;;;;;;;;4995333;28;20023;-79
2021/09/29 16:15:58;;;;;;;2.13;0.40;;;;;;;;;;4995156;28;20089;-79
2021/09/29 16:18:38;;;;;;;0.70;0.30;;;;;;;;;;4986104;28;20067;-78
2021/09/29 16:23:44;;;;;;;1.50;0.40;;;;;;;;;;4997267;28;20030;-80
2021/09/29 16:31:41;;;;;;;1.00;0.30;;;;;;;;;;4981300;28;20038;-80
2021/09/29 16:36:33;;;;;;;1.50;0.43;;;;;;;;;;5000768;28;20053;-79
2021/09/29 16:38:59;;;;;;;0.80;0.20;;;;;;;;;;4995071;28;20049;-79
2021/09/29 16:41:25;;;;;;;0.65;0.20;;;;;;;;;;4995717;28;20109;-80
2021/09/29 16:43:52;;;;;;;0.63;0.20;;;;;;;;;;4996042;28;20042;-80
2021/09/29 16:46:21;;;;;;;2.33;0.50;;;;;;;;;;4997822;28;20033;-79
2021/09/29 16:48:47;;;;;;;1.60;0.35;;;;;;;;;;4984731;28;20411;-78
2021/09/29 16:51:22;;;;;;;3.13;0.35;;;;;;;;;;5000930;28;20026;-78
2021/09/29 16:53:55;;;;;;;1.80;0.40;;;;;;;;;;4995512;28;20074;-78
2021/09/29 16:56:21;;;;;;;1.10;0.43;;;;;;;;;;5001737;28;20026;-78
2021/09/29 17:01:14;;;;;;;3.03;0.50;;;;;;;;;;4995293;28;20041;-79
2021/09/29 17:03:41;;;;;;;0.90;0.40;;;;;;;;;;4994701;28;20053;-79
2021/09/29 17:06:09;;;;;;;1.15;0.40;;;14.10;99.90;;;;;;4990451;28;20483;-79
2021/09/29 17:08:37;;;;;;;2.50;0.45;;;13.70;99.90;;;;;;4991121;28;20029;-81
2021/09/29 17:11:04;;;;;;;1.33;0.32;;;13.40;99.90;;;;;;4990806;28;20026;-78
2021/09/29 17:13:40;;;;;;;2.42;0.40;;;13.50;99.90;;;;;;4990511;28;20038;-80
2021/09/29 17:16:24;;;;;;;1.63;0.47;;;14.60;99.90;;;;;;4990918;28;20029;-79
2021/09/29 17:18:51;;;;;;;1.33;0.75;;;13.30;99.90;;;;;;4974643;28;20018;-80
2021/09/29 17:21:20;;;;;;;1.10;0.47;;;13.30;99.90;;;;;;4991387;28;20026;-80
2021/09/29 17:23:47;;;;;;;2.15;0.52;;;13.20;99.90;;;;;;4974093;28;20046;-79
2021/09/29 17:26:13;;;;;;;2.85;0.43;;;14.00;99.90;;;;;;4991430;28;20041;-79
2021/09/29 17:28:42;;;;;;;3.42;0.40;;;14.00;99.90;;;;;;4990378;28;20022;-80
2021/09/29 17:31:11;;;;;;;2.15;0.40;;;13.20;99.90;;;;;;4990238;28;20023;-79
2021/09/29 17:33:53;;;;;;;1.42;0.40;;;13.30;99.90;;;;;;4974234;28;20027;-81
2021/09/29 17:36:29;;;;;;;1.63;0.47;;;13.00;99.90;;;;;;4971954;28;20031;-78
2021/09/29 17:39:24;;;;;;;0.85;0.30;;;13.00;99.90;;;;;;4988452;28;20585;-79
2021/09/29 17:53:05;;;;;;;3.85;0.57;;;;;;;;;;4941653;28;20040;-80
2021/09/29 17:55:32;;;;;;;1.45;0.47;;;;;;;;;;4953896;28;20516;-80
2021/09/29 17:57:59;;;;;;;1.50;0.50;;;;;;;;;;4962329;28;20030;-80
2021/09/29 18:00:27;;;;;;;4.80;0.50;;;;;;;;;;4989995;28;20033;-79
2021/09/29 18:03:01;;;;;;;1.63;0.50;;;;;;;;;;4990236;28;20054;-78
2021/09/29 18:05:32;;;;;;;2.25;0.65;;;;;;;;;;4973705;28;20034;-80
2021/09/29 18:07:59;;;;;;;3.33;0.80;;;;;;;;;;4991882;28;20061;-81
2021/09/29 18:10:26;;;;;;;1.35;0.50;;;;;;;;;;4991837;28;20050;-80
2021/09/29 18:12:53;;;;;;;2.78;0.70;;;;;;;;;;4991186;28;20022;-80
2021/09/29 18:15:18;;;;;;;3.15;0.65;;;;;;;;;;4973251;28;20029;-80
2021/09/29 18:17:44;;;;;;;2.28;0.50;;;;;;;;;;4973751;28;20050;-80
2021/09/29 18:20:11;;;;;;;2.58;0.63;;;;;;;;;;4989939;28;20034;-80
2021/09/29 18:22:38;;;;;;;2.70;0.60;;;;;;;;;;4999123;28;20018;-81
2021/09/29 18:25:05;;;;;;;1.27;0.47;;;;;;;;;;4992678;28;20030;-81
2021/09/29 18:27:31;;;;;;;3.03;0.80;;;;;;;;;;4988975;28;20104;-80
2021/09/29 18:29:59;;;;;;;1.60;0.50;;;;;;;;;;4989770;28;20050;-81
2021/09/29 18:32:26;;;;;;;1.35;0.50;;;;;;;;;;4989450;28;20019;-80